Time;durP1;ratioP1;P1;durP2;ratioP2;P2;SDS_P1;SDS_P2;PMS_P1;PMS_P2;Temp;Humidity;BMP_temperature;BMP_pressure;BME280_temperature;BME280_humidity;BME280_pressure;Samples;Min_cycle;Max_cycle;Signal;HPM_P1;HPM_P2
2023/03/12 00:01:44;;;;;;;1.33;0.85;;;0.70;99.90;;;;;;5062800;28;20131;-73
2023/03/12 00:04:10;;;;;;;2.63;1.58;;;0.70;99.90;;;;;;5068697;28;20055;-73
2023/03/12 00:06:36;;;;;;;2.45;1.10;;;0.70;99.90;;;;;;5051840;28;20063;-72
2023/03/12 00:09:03;;;;;;;7.85;1.27;;;0.70;99.90;;;;;;5084407;28;20028;-72
2023/03/12 00:11:29;;;;;;;2.90;1.27;;;0.70;99.90;;;;;;5077216;28;20128;-72
2023/03/12 00:13:56;;;;;;;4.30;1.38;;;0.70;99.90;;;;;;5088189;28;20126;-73
2023/03/12 00:16:23;;;;;;;2.10;1.10;;;0.70;99.90;;;;;;5084599;28;20462;-73
2023/03/12 00:18:50;;;;;;;2.55;1.15;;;0.60;99.90;;;;;;5087934;28;20071;-73
2023/03/12 00:21:16;;;;;;;1.98;1.05;;;0.60;99.90;;;;;;5058779;28;20052;-72
2023/03/12 00:23:42;;;;;;;2.67;0.75;;;0.60;99.90;;;;;;5067547;28;20086;-72
2023/03/12 00:26:10;;;;;;;1.40;0.77;;;0.60;99.90;;;;;;5067523;28;20063;-72
2023/03/12 00:28:37;;;;;;;1.92;0.98;;;0.60;99.90;;;;;;5081828;28;20036;-73
2023/03/12 00:31:11;;;;;;;3.05;1.40;;;0.60;99.90;;;;;;5070871;28;20040;-73
2023/03/12 00:33:37;;;;;;;3.70;1.17;;;0.60;99.90;;;;;;5087775;28;20073;-72
2023/03/12 00:36:03;;;;;;;1.85;0.95;;;0.60;99.90;;;;;;5085988;28;20428;-72
2023/03/12 00:38:29;;;;;;;2.88;1.58;;;0.60;99.90;;;;;;5085679;28;20083;-73
2023/03/12 00:40:54;;;;;;;2.35;0.98;;;0.60;99.90;;;;;;5055859;28;20436;-73
2023/03/12 00:43:20;;;;;;;2.10;1.15;;;0.60;99.90;;;;;;5071056;28;20039;-73
2023/03/12 00:45:45;;;;;;;2.28;1.25;;;0.60;99.90;;;;;;5071379;28;20032;-72
2023/03/12 00:48:11;;;;;;;2.33;1.10;;;0.60;99.90;;;;;;5069221;28;20036;-72
2023/03/12 00:50:36;;;;;;;2.33;1.35;;;0.60;99.90;;;;;;5071731;28;20028;-72
2023/03/12 00:53:02;;;;;;;1.92;1.25;;;0.60;99.90;;;;;;5071902;28;20032;-72
2023/03/12 00:55:28;;;;;;;2.45;1.30;;;0.60;99.90;;;;;;5057243;28;20093;-72
2023/03/12 00:57:54;;;;;;;2.25;1.15;;;0.60;99.90;;;;;;5072430;28;20032;-72
2023/03/12 01:00:20;;;;;;;1.90;0.98;;;0.60;99.90;;;;;;5066820;28;20754;-72
2023/03/12 01:02:45;;;;;;;2.08;1.20;;;0.60;99.90;;;;;;5082548;28;20435;-72
2023/03/12 01:05:12;;;;;;;2.05;1.23;;;0.60;99.90;;;;;;5079142;28;20041;-73
2023/03/12 01:07:38;;;;;;;1.30;0.85;;;0.60;99.90;;;;;;5070657;28;20032;-73
2023/03/12 01:10:05;;;;;;;4.35;1.38;;;0.60;99.90;;;;;;5090841;28;20509;-73
2023/03/12 01:12:31;;;;;;;1.88;1.02;;;0.60;99.90;;;;;;5075696;28;20059;-72
2023/03/12 01:14:56;;;;;;;1.85;0.90;;;0.60;99.90;;;;;;5088006;28;20044;-72
2023/03/12 01:17:22;;;;;;;4.72;1.33;;;0.60;99.90;;;;;;5091093;28;20167;-72
2023/03/12 01:19:47;;;;;;;1.63;1.05;;;0.60;99.90;;;;;;5069861;28;20560;-73
2023/03/12 01:22:13;;;;;;;3.67;1.20;;;0.60;99.90;;;;;;5067589;28;20028;-72
2023/03/12 01:24:39;;;;;;;1.75;0.80;;;0.60;99.90;;;;;;5070532;28;20580;-72
2023/03/12 01:27:04;;;;;;;1.98;0.98;;;0.60;99.90;;;;;;5067934;28;20256;-72
2023/03/12 01:29:30;;;;;;;2.13;0.82;;;0.60;99.90;;;;;;5069232;28;21666;-72
2023/03/12 01:31:56;;;;;;;1.58;1.10;;;0.60;99.90;;;;;;5073218;28;20502;-73
2023/03/12 01:34:21;;;;;;;1.50;1.00;;;0.60;99.90;;;;;;5070373;28;20040;-72
2023/03/12 01:36:47;;;;;;;1.58;0.82;;;0.60;99.90;;;;;;5072546;28;20066;-73
2023/03/12 01:39:13;;;;;;;1.23;0.63;;;0.60;99.90;;;;;;5069177;28;20044;-72
2023/03/12 01:41:39;;;;;;;2.25;1.00;;;0.60;99.90;;;;;;5053857;28;20525;-72
2023/03/12 01:44:06;;;;;;;1.30;0.80;;;0.60;99.90;;;;;;5071178;28;20086;-72
2023/03/12 01:46:44;;;;;;;4.75;1.10;;;0.60;99.90;;;;;;5089167;28;20037;-72
2023/03/12 01:49:17;;;;;;;2.40;1.55;;;0.60;99.90;;;;;;5073953;28;20512;-72
2023/03/12 01:51:49;;;;;;;2.72;1.08;;;0.60;99.90;;;;;;5074476;28;20040;-72
2023/03/12 01:54:20;;;;;;;2.60;0.80;;;0.60;99.90;;;;;;5067690;28;20044;-72
2023/03/12 01:56:47;;;;;;;3.38;1.33;;;0.60;99.90;;;;;;5073233;28;20574;-72
2023/03/12 01:59:18;;;;;;;1.63;0.80;;;0.60;99.90;;;;;;5067990;28;20385;-72
2023/03/12 02:01:45;;;;;;;3.70;1.30;;;0.60;99.90;;;;;;5075042;28;20044;-72
2023/03/12 02:04:12;;;;;;;2.35;0.98;;;0.70;99.90;;;;;;5114190;27;20040;-72
2023/03/12 02:06:55;;;;;;;1.33;0.90;;;0.70;99.90;;;;;;5073954;28;20040;-72
2023/03/12 02:09:21;;;;;;;3.30;1.08;;;0.60;99.90;;;;;;5083551;28;20508;-73
2023/03/12 02:11:47;;;;;;;4.72;1.35;;;0.70;99.90;;;;;;5104562;27;20043;-72
2023/03/12 02:14:14;;;;;;;2.00;1.00;;;0.70;99.90;;;;;;5068242;28;20036;-72
2023/03/12 02:16:39;;;;;;;1.33;0.90;;;0.70;99.90;;;;;;5088077;28;20086;-72
2023/03/12 02:19:17;;;;;;;1.48;0.80;;;0.80;99.90;;;;;;5055987;28;20092;-72
2023/03/12 02:21:43;;;;;;;2.75;0.77;;;0.80;99.90;;;;;;5068475;28;20497;-72
2023/03/12 02:24:26;;;;;;;2.30;1.23;;;0.80;99.90;;;;;;5100365;27;20060;-72
2023/03/12 02:26:52;;;;;;;1.77;0.88;;;0.80;99.90;;;;;;5066391;28;20037;-72
2023/03/12 02:29:18;;;;;;;4.60;1.27;;;0.80;99.90;;;;;;5100404;27;20029;-73
2023/03/12 02:31:49;;;;;;;3.10;1.10;;;0.80;99.90;;;;;;5080325;28;20028;-72
2023/03/12 02:34:15;;;;;;;2.92;0.95;;;0.80;99.90;;;;;;5095287;27;20063;-72
2023/03/12 02:36:40;;;;;;;1.67;0.80;;;0.80;99.90;;;;;;5064611;28;20124;-72
2023/03/12 02:39:06;;;;;;;1.35;1.00;;;0.80;99.90;;;;;;5081938;28;20533;-72
2023/03/12 02:41:36;;;;;;;1.50;1.17;;;0.80;99.90;;;;;;5088083;28;20036;-72
2023/03/12 02:44:05;;;;;;;2.28;1.10;;;0.80;99.90;;;;;;5080816;28;20044;-72
2023/03/12 02:46:35;;;;;;;1.20;0.80;;;0.80;99.90;;;;;;5085033;28;20039;-72
2023/03/12 02:49:01;;;;;;;2.22;1.35;;;0.80;99.90;;;;;;5086921;28;20451;-72
2023/03/12 02:51:26;;;;;;;2.67;1.23;;;0.90;99.90;;;;;;5083475;28;20031;-72
2023/03/12 02:53:53;;;;;;;1.77;0.70;;;0.80;99.90;;;;;;5067830;28;20057;-72
2023/03/12 02:56:24;;;;;;;2.33;1.23;;;0.80;99.90;;;;;;5106360;27;20044;-72
2023/03/12 02:58:50;;;;;;;1.65;0.75;;;0.80;99.90;;;;;;5067125;28;20062;-72
2023/03/12 03:01:16;;;;;;;1.48;1.15;;;0.90;99.90;;;;;;5067961;28;20044;-72
2023/03/12 03:03:42;;;;;;;2.35;1.27;;;0.90;99.90;;;;;;5090084;28;20032;-72
2023/03/12 03:06:08;;;;;;;6.20;1.38;;;0.90;99.90;;;;;;5066141;28;20090;-72
2023/03/12 03:08:33;;;;;;;2.35;0.80;;;0.90;99.90;;;;;;5085609;28;20041;-72
2023/03/12 03:11:01;;;;;;;2.25;1.00;;;0.90;99.90;;;;;;5063600;28;20033;-72
2023/03/12 03:13:28;;;;;;;2.85;1.17;;;0.90;99.90;;;;;;5080366;28;20047;-72
2023/03/12 03:15:56;;;;;;;4.22;1.35;;;0.90;99.90;;;;;;5118512;27;20542;-72
2023/03/12 03:18:23;;;;;;;2.30;1.05;;;0.90;99.90;;;;;;5077210;28;20048;-72
2023/03/12 03:21:00;;;;;;;1.67;1.20;;;0.90;99.90;;;;;;5066871;28;20080;-72
2023/03/12 03:23:26;;;;;;;2.42;1.27;;;0.90;99.90;;;;;;5067228;28;20123;-72
2023/03/12 03:25:52;;;;;;;3.63;1.02;;;0.90;99.90;;;;;;5049499;28;20127;-72
2023/03/12 03:28:19;;;;;;;2.45;1.25;;;1.00;99.90;;;;;;5088979;28;20032;-72
2023/03/12 03:30:45;;;;;;;2.67;1.63;;;1.00;99.90;;;;;;5075786;28;20033;-72
2023/03/12 03:33:11;;;;;;;2.53;1.30;;;1.00;99.90;;;;;;5098866;28;20118;-72
2023/03/12 03:35:36;;;;;;;2.53;1.88;;;1.00;99.90;;;;;;5079536;28;20036;-72
2023/03/12 03:38:03;;;;;;;2.60;1.33;;;1.00;99.90;;;;;;5053165;28;20462;-72
2023/03/12 03:40:28;;;;;;;3.50;2.28;;;1.00;99.90;;;;;;5075802;28;20532;-72
2023/03/12 03:42:54;;;;;;;1.95;1.35;;;1.00;99.90;;;;;;5071037;28;20060;-72
2023/03/12 03:45:20;;;;;;;2.72;1.60;;;1.00;99.90;;;;;;5061791;28;20041;-72
2023/03/12 03:47:45;;;;;;;2.90;1.17;;;1.00;99.90;;;;;;5078280;28;20075;-72
2023/03/12 03:50:11;;;;;;;3.88;1.48;;;1.00;99.90;;;;;;5081079;28;20082;-72
2023/03/12 03:52:37;;;;;;;2.17;1.20;;;1.00;99.90;;;;;;5084380;28;20040;-72
2023/03/12 03:55:04;;;;;;;1.88;1.02;;;1.00;99.90;;;;;;5070612;28;20379;-72
2023/03/12 03:57:29;;;;;;;7.82;1.67;;;1.00;99.90;;;;;;5084070;28;20036;-72
2023/03/12 03:59:57;;;;;;;2.08;1.27;;;1.00;99.90;;;;;;5067046;28;20547;-72
2023/03/12 04:02:23;;;;;;;2.60;1.42;;;1.00;99.90;;;;;;5097552;28;20052;-72
2023/03/12 04:04:49;;;;;;;2.72;1.67;;;1.00;99.90;;;;;;5056739;28;20793;-72
2023/03/12 04:07:15;;;;;;;3.25;1.52;;;1.00;99.90;;;;;;5068179;28;20040;-72
2023/03/12 04:09:41;;;;;;;3.08;1.30;;;1.00;99.90;;;;;;5051721;28;20040;-72
2023/03/12 04:12:07;;;;;;;2.63;1.40;;;1.00;99.90;;;;;;5069391;28;20052;-72
2023/03/12 04:14:32;;;;;;;1.55;0.93;;;1.00;99.90;;;;;;5089869;28;20097;-72
2023/03/12 04:16:58;;;;;;;4.95;1.10;;;1.00;99.90;;;;;;5074889;28;20688;-72
2023/03/12 04:19:24;;;;;;;2.35;1.33;;;1.00;99.90;;;;;;5077955;28;20048;-72
2023/03/12 04:21:49;;;;;;;2.65;1.30;;;1.00;99.90;;;;;;5076899;28;20031;-72
2023/03/12 04:24:17;;;;;;;2.58;1.42;;;1.00;99.90;;;;;;5090492;28;20032;-72
2023/03/12 04:26:43;;;;;;;2.20;1.05;;;1.10;99.90;;;;;;5090973;28;20040;-72
2023/03/12 04:29:09;;;;;;;3.42;1.30;;;1.10;99.90;;;;;;5084593;28;20040;-72
2023/03/12 04:31:34;;;;;;;2.42;1.52;;;1.00;99.90;;;;;;5085015;28;20038;-72
2023/03/12 04:34:00;;;;;;;2.08;1.23;;;1.00;99.90;;;;;;5085132;28;20040;-72
2023/03/12 04:36:26;;;;;;;2.42;1.25;;;1.10;99.90;;;;;;5078710;28;20044;-72
2023/03/12 04:38:52;;;;;;;2.78;1.58;;;1.00;99.90;;;;;;5070832;28;20512;-72
2023/03/12 04:41:17;;;;;;;3.42;1.52;;;1.00;99.90;;;;;;5053800;28;20036;-72
2023/03/12 04:43:46;;;;;;;3.92;1.42;;;1.10;99.90;;;;;;5056392;28;20509;-72
2023/03/12 04:46:11;;;;;;;1.92;1.15;;;1.10;99.90;;;;;;5072866;28;20029;-72
2023/03/12 04:48:37;;;;;;;3.67;1.38;;;1.00;99.90;;;;;;5087335;28;20099;-72
2023/03/12 04:51:03;;;;;;;2.78;1.40;;;1.00;99.90;;;;;;5109887;27;20040;-72
2023/03/12 04:53:29;;;;;;;5.38;1.67;;;1.10;99.90;;;;;;5088621;28;20082;-72
2023/03/12 04:55:55;;;;;;;2.47;1.38;;;1.10;99.90;;;;;;5084615;28;20072;-72
2023/03/12 04:58:21;;;;;;;3.33;1.17;;;1.10;99.90;;;;;;5075021;28;20039;-72
2023/03/12 05:00:48;;;;;;;2.67;1.30;;;1.10;99.90;;;;;;5058286;28;20038;-72
2023/03/12 05:03:14;;;;;;;4.15;1.85;;;1.10;99.90;;;;;;5083713;28;20040;-72
2023/03/12 05:05:40;;;;;;;3.53;1.45;;;1.10;99.90;;;;;;5068840;28;20039;-72
2023/03/12 05:08:05;;;;;;;2.85;1.45;;;1.10;99.90;;;;;;5070245;28;20033;-72
2023/03/12 05:10:31;;;;;;;1.35;0.93;;;1.10;99.90;;;;;;5085745;28;20485;-72
2023/03/12 05:12:57;;;;;;;3.28;1.40;;;1.20;99.90;;;;;;5079367;28;20044;-72
2023/03/12 05:15:23;;;;;;;2.67;1.77;;;1.10;99.90;;;;;;5069654;28;20052;-72
2023/03/12 05:17:48;;;;;;;3.85;1.75;;;1.20;99.90;;;;;;5071253;28;20047;-72
2023/03/12 05:20:16;;;;;;;4.82;1.80;;;1.20;99.90;;;;;;5102763;27;20494;-72
2023/03/12 05:22:42;;;;;;;2.58;1.60;;;1.20;99.90;;;;;;5080324;28;20161;-72
2023/03/12 05:25:08;;;;;;;1.52;1.20;;;1.20;99.90;;;;;;5089505;28;20454;-72
2023/03/12 05:27:35;;;;;;;3.35;1.45;;;1.20;99.90;;;;;;5079776;28;20043;-72
2023/03/12 05:30:00;;;;;;;2.85;1.52;;;1.20;99.90;;;;;;5075448;28;20047;-72
2023/03/12 05:32:26;;;;;;;2.85;1.65;;;1.20;99.90;;;;;;5086059;28;20047;-72
2023/03/12 05:34:52;;;;;;;2.28;1.65;;;1.20;99.90;;;;;;5086940;28;20036;-72
2023/03/12 05:37:17;;;;;;;3.22;1.10;;;1.20;99.90;;;;;;5076578;28;20040;-72
2023/03/12 05:39:45;;;;;;;3.90;1.52;;;1.20;99.90;;;;;;5077390;28;20123;-72
2023/03/12 05:42:14;;;;;;;6.75;1.23;;;1.20;99.90;;;;;;5107143;27;20127;-72
2023/03/12 05:44:40;;;;;;;2.92;1.45;;;1.20;99.90;;;;;;5100040;28;20044;-72
2023/03/12 05:47:06;;;;;;;4.63;1.65;;;1.20;99.90;;;;;;5071897;28;20047;-72
2023/03/12 05:49:32;;;;;;;4.68;1.73;;;1.30;99.90;;;;;;5075729;28;20040;-72
2023/03/12 05:51:58;;;;;;;2.97;1.50;;;1.30;99.90;;;;;;5101166;27;20119;-72
2023/03/12 05:54:23;;;;;;;3.38;1.58;;;1.20;99.90;;;;;;5089966;28;20048;-72
2023/03/12 05:56:49;;;;;;;4.22;1.92;;;1.30;99.90;;;;;;5087674;28;20527;-72
2023/03/12 05:59:15;;;;;;;4.28;1.83;;;1.30;99.90;;;;;;5083759;28;20033;-72
2023/03/12 06:01:41;;;;;;;2.72;1.60;;;1.30;99.90;;;;;;5076414;28;20040;-72
2023/03/12 06:04:07;;;;;;;5.35;1.85;;;1.30;99.90;;;;;;5079469;28;20040;-72
2023/03/12 06:06:34;;;;;;;2.67;1.58;;;1.30;99.90;;;;;;5073894;28;20313;-72
2023/03/12 06:09:00;;;;;;;3.72;1.58;;;1.30;99.90;;;;;;5083164;28;20259;-72
2023/03/12 06:11:26;;;;;;;3.05;1.92;;;1.30;99.90;;;;;;5067207;28;20640;-72
2023/03/12 06:13:51;;;;;;;4.53;1.80;;;1.30;99.90;;;;;;5073678;28;20059;-72
2023/03/12 06:16:20;;;;;;;4.35;1.83;;;1.30;99.90;;;;;;5085663;28;20040;-72
2023/03/12 06:18:46;;;;;;;3.83;1.73;;;1.40;99.90;;;;;;5080241;28;20402;-72
2023/03/12 06:21:15;;;;;;;6.90;1.75;;;1.40;99.90;;;;;;5072571;28;20036;-72
2023/03/12 06:23:41;;;;;;;4.40;2.22;;;1.40;99.90;;;;;;5051846;28;20482;-72
2023/03/12 06:26:08;;;;;;;2.53;1.80;;;1.40;99.90;;;;;;5075303;28;20065;-72
2023/03/12 06:28:34;;;;;;;3.72;1.73;;;1.40;99.90;;;;;;5080337;28;20332;-72
2023/03/12 06:30:59;;;;;;;4.72;2.47;;;1.40;99.90;;;;;;5069344;28;20045;-72
2023/03/12 06:33:25;;;;;;;3.03;1.83;;;1.40;99.90;;;;;;5071058;28;20036;-72
2023/03/12 06:35:55;;;;;;;3.85;1.90;;;1.40;99.90;;;;;;5077994;28;20409;-72
2023/03/12 06:38:21;;;;;;;2.88;1.55;;;1.40;99.90;;;;;;5077941;28;20062;-72
2023/03/12 06:40:57;;;;;;;3.45;2.03;;;1.40;99.90;;;;;;5054696;28;20036;-71
2023/03/12 06:43:24;;;;;;;4.13;2.45;;;1.40;99.90;;;;;;5081737;28;20493;-72
2023/03/12 06:45:49;;;;;;;4.30;2.08;;;1.40;99.90;;;;;;5082347;28;20377;-72
2023/03/12 06:48:15;;;;;;;3.45;2.03;;;1.40;99.90;;;;;;5067726;28;20032;-72
2023/03/12 06:50:41;;;;;;;3.38;1.83;;;1.40;99.90;;;;;;5067443;28;20028;-71
2023/03/12 06:53:06;;;;;;;4.00;2.08;;;1.40;99.90;;;;;;5064613;28;20444;-72
2023/03/12 06:55:32;;;;;;;5.30;1.88;;;1.50;99.90;;;;;;5075584;28;20139;-73
2023/03/12 06:57:57;;;;;;;4.25;2.33;;;1.40;99.90;;;;;;5084909;28;20488;-73
2023/03/12 07:00:23;;;;;;;3.22;1.98;;;1.50;99.90;;;;;;5072364;28;20029;-73
2023/03/12 07:02:48;;;;;;;4.85;2.17;;;1.40;99.90;;;;;;5057110;28;20051;-72
2023/03/12 07:05:14;;;;;;;2.95;1.85;;;1.50;99.90;;;;;;5082607;28;20456;-72
2023/03/12 07:07:40;;;;;;;3.20;1.88;;;1.50;99.90;;;;;;5076352;28;20095;-72
2023/03/12 07:10:06;;;;;;;3.03;1.80;;;1.50;99.90;;;;;;5073190;28;20036;-72
2023/03/12 07:12:32;;;;;;;4.78;2.30;;;1.50;99.90;;;;;;5087978;28;20110;-72
2023/03/12 07:14:57;;;;;;;3.47;1.85;;;1.50;99.90;;;;;;5069959;28;20127;-72
2023/03/12 07:17:24;;;;;;;6.70;2.30;;;1.50;99.90;;;;;;5080649;28;20119;-72
2023/03/12 07:19:50;;;;;;;4.85;2.25;;;1.50;99.90;;;;;;5064478;28;20050;-72
2023/03/12 07:22:16;;;;;;;2.95;1.80;;;1.50;99.90;;;;;;5055876;28;20545;-74
2023/03/12 07:24:42;;;;;;;4.00;2.25;;;1.50;99.90;;;;;;5094850;28;20445;-72
2023/03/12 07:27:08;;;;;;;3.05;2.10;;;1.50;99.90;;;;;;5089069;28;20040;-72
2023/03/12 07:29:33;;;;;;;6.35;2.58;;;1.50;99.90;;;;;;5061022;28;20233;-72
2023/03/12 07:31:59;;;;;;;3.72;1.63;;;1.50;99.90;;;;;;5071421;28;20119;-72
2023/03/12 07:34:25;;;;;;;5.22;2.38;;;1.50;99.90;;;;;;5073776;28;20133;-72
2023/03/12 07:36:50;;;;;;;3.28;2.25;;;1.50;99.90;;;;;;5069186;28;20036;-72
2023/03/12 07:39:16;;;;;;;4.13;2.50;;;1.50;99.90;;;;;;5069517;28;20048;-72
2023/03/12 07:41:42;;;;;;;6.90;2.05;;;1.50;99.90;;;;;;5070370;28;20048;-72
2023/03/12 07:44:08;;;;;;;4.32;2.47;;;1.50;99.90;;;;;;5097795;28;20040;-73
2023/03/12 07:46:34;;;;;;;4.40;2.40;;;1.50;99.90;;;;;;5074442;28;20043;-73
2023/03/12 07:48:59;;;;;;;4.70;1.90;;;1.50;99.90;;;;;;5078205;28;20040;-72
2023/03/12 07:51:25;;;;;;;5.47;2.60;;;1.50;99.90;;;;;;5087380;28;20052;-72
2023/03/12 07:53:51;;;;;;;3.17;1.92;;;1.50;99.90;;;;;;5088234;28;20040;-72
2023/03/12 07:56:16;;;;;;;4.07;2.05;;;1.50;99.90;;;;;;5080634;28;20036;-72
2023/03/12 07:58:42;;;;;;;6.97;2.83;;;1.50;99.90;;;;;;5087553;28;20910;-72
2023/03/12 08:01:08;;;;;;;5.05;2.65;;;1.50;99.90;;;;;;5075205;28;20094;-72
2023/03/12 08:03:34;;;;;;;4.07;2.67;;;1.50;99.90;;;;;;5077785;28;20409;-72
2023/03/12 08:06:02;;;;;;;4.90;2.60;;;1.50;99.90;;;;;;5071801;28;20032;-72
2023/03/12 08:08:29;;;;;;;3.65;2.42;;;1.50;99.90;;;;;;5102482;27;20032;-72
2023/03/12 08:10:55;;;;;;;5.50;2.90;;;1.50;99.90;;;;;;5102300;27;20265;-72
2023/03/12 08:13:22;;;;;;;6.25;2.97;;;1.50;99.90;;;;;;5077609;28;20052;-72
2023/03/12 08:15:50;;;;;;;4.85;2.53;;;1.50;99.90;;;;;;5077926;28;20488;-72
2023/03/12 08:18:16;;;;;;;2.78;2.08;;;1.50;99.90;;;;;;5076897;28;20059;-72
2023/03/12 08:20:42;;;;;;;4.28;2.70;;;1.50;99.90;;;;;;5074978;28;20070;-72
2023/03/12 08:23:08;;;;;;;5.72;2.75;;;1.50;99.90;;;;;;5111989;27;20392;-72
2023/03/12 08:25:35;;;;;;;4.18;2.85;;;1.50;99.90;;;;;;5064115;28;20478;-72
2023/03/12 08:28:02;;;;;;;6.72;2.70;;;1.60;99.90;;;;;;5080444;28;20089;-72
2023/03/12 08:30:28;;;;;;;4.45;2.13;;;1.50;99.90;;;;;;5104525;27;20040;-72
2023/03/12 08:32:54;;;;;;;3.38;2.25;;;1.50;99.90;;;;;;5082459;28;20050;-72
2023/03/12 08:35:19;;;;;;;6.05;2.05;;;1.60;99.90;;;;;;5076455;28;20037;-72
2023/03/12 08:37:45;;;;;;;5.30;2.55;;;1.60;99.90;;;;;;5074256;28;20492;-72
2023/03/12 08:40:12;;;;;;;4.65;2.38;;;1.60;99.90;;;;;;5080213;28;20043;-72
2023/03/12 08:42:43;;;;;;;7.88;2.95;;;1.60;99.90;;;;;;5082809;28;20044;-72
2023/03/12 08:45:10;;;;;;;6.30;2.75;;;1.60;99.90;;;;;;5070226;28;20440;-72
2023/03/12 08:47:36;;;;;;;5.32;3.88;;;1.60;99.90;;;;;;5076749;28;20402;-72
2023/03/12 08:50:02;;;;;;;5.20;2.58;;;1.60;99.90;;;;;;5059949;28;20229;-72
2023/03/12 08:52:27;;;;;;;8.85;3.65;;;1.60;99.90;;;;;;5086481;28;20440;-72
2023/03/12 08:54:53;;;;;;;4.60;2.63;;;1.60;99.90;;;;;;5105277;28;20037;-72
2023/03/12 08:57:18;;;;;;;7.32;3.58;;;1.70;99.90;;;;;;5057958;28;20045;-72
2023/03/12 08:59:44;;;;;;;8.05;3.80;;;1.70;99.90;;;;;;5073407;28;20094;-72
2023/03/12 09:02:11;;;;;;;5.25;2.95;;;1.70;99.90;;;;;;5072474;28;20033;-72
2023/03/12 09:04:37;;;;;;;8.77;3.75;;;1.70;99.90;;;;;;5072127;28;20062;-72
2023/03/12 09:07:03;;;;;;;5.22;2.40;;;1.80;99.90;;;;;;5072405;28;20044;-72
2023/03/12 09:09:29;;;;;;;5.75;2.88;;;1.80;99.90;;;;;;5071372;28;20048;-72
2023/03/12 09:11:55;;;;;;;9.25;2.95;;;1.80;99.90;;;;;;5069181;28;20410;-72
2023/03/12 09:14:20;;;;;;;3.28;2.10;;;1.80;99.90;;;;;;5078280;28;20461;-72
2023/03/12 09:16:46;;;;;;;4.68;2.00;;;1.80;99.90;;;;;;5071026;28;20078;-72
2023/03/12 09:19:12;;;;;;;4.18;2.70;;;1.80;99.90;;;;;;5074836;28;20057;-72
2023/03/12 09:21:38;;;;;;;3.95;2.60;;;1.80;99.90;;;;;;5079338;28;20043;-72
2023/03/12 09:24:05;;;;;;;4.93;2.55;;;1.80;99.90;;;;;;5106568;27;20052;-72
2023/03/12 09:26:30;;;;;;;5.88;2.58;;;1.90;99.90;;;;;;5109074;27;20047;-72
2023/03/12 09:28:57;;;;;;;4.30;2.83;;;1.90;99.90;;;;;;5059047;28;20029;-72
2023/03/12 09:31:23;;;;;;;5.85;2.88;;;1.90;99.90;;;;;;5075949;28;20169;-72
2023/03/12 09:33:50;;;;;;;5.55;2.63;;;1.90;99.90;;;;;;5056429;28;20033;-72
2023/03/12 09:36:15;;;;;;;3.85;2.38;;;1.90;99.90;;;;;;5070319;28;20072;-72
2023/03/12 09:38:41;;;;;;;5.40;3.00;;;1.90;99.90;;;;;;5070721;28;20075;-72
2023/03/12 09:41:23;;;;;;;5.93;3.08;;;1.90;99.90;;;;;;5090263;28;20086;-72
2023/03/12 09:44:01;;;;;;;6.78;4.05;;;2.00;99.90;;;;;;5062839;28;20032;-73
2023/03/12 09:46:36;;;;;;;5.20;3.15;;;2.00;99.90;;;;;;5075273;28;20036;-72
2023/03/12 09:49:08;;;;;;;6.73;3.67;;;2.00;99.90;;;;;;5074010;28;20044;-73
2023/03/12 09:51:40;;;;;;;5.53;3.55;;;2.00;99.90;;;;;;5075159;28;20309;-73
2023/03/12 09:54:12;;;;;;;7.95;3.85;;;2.00;99.90;;;;;;5067353;28;20424;-73
2023/03/12 09:56:38;;;;;;;7.20;3.75;;;2.00;99.90;;;;;;5077375;28;20078;-73
2023/03/12 09:59:10;;;;;;;5.63;3.60;;;2.00;99.90;;;;;;5078533;28;20071;-73
2023/03/12 10:01:48;;;;;;;7.43;3.63;;;2.00;99.90;;;;;;5072398;28;20044;-73
2023/03/12 10:04:32;;;;;;;9.27;4.53;;;2.00;99.90;;;;;;5056717;28;20233;-73
2023/03/12 10:06:57;;;;;;;8.60;4.45;;;2.00;99.90;;;;;;5073602;28;20121;-73
2023/03/12 10:09:34;;;;;;;7.43;4.30;;;2.00;99.90;;;;;;5072939;28;20445;-73
2023/03/12 10:12:04;;;;;;;5.95;3.83;;;2.00;99.90;;;;;;5075299;28;20089;-73
2023/03/12 10:14:40;;;;;;;6.65;3.95;;;2.00;99.90;;;;;;5070430;28;20072;-73
2023/03/12 10:17:31;;;;;;;9.07;4.45;;;2.00;99.90;;;;;;5075190;28;20387;-73
2023/03/12 10:20:36;;;;;;;6.80;3.50;;;2.10;99.90;;;;;;5069615;28;20044;-73
2023/03/12 10:23:12;;;;;;;5.13;3.47;;;2.10;99.90;;;;;;5056026;28;20047;-73
2023/03/12 10:25:54;;;;;;;10.30;5.57;;;2.10;99.90;;;;;;5069111;28;20032;-73
2023/03/12 10:28:31;;;;;;;7.07;4.13;;;2.10;99.90;;;;;;5061494;28;20032;-73
2023/03/12 10:31:03;;;;;;;10.82;4.97;;;2.20;99.90;;;;;;5076183;28;20032;-73
2023/03/12 10:33:46;;;;;;;8.77;4.55;;;2.20;99.90;;;;;;5081692;28;20067;-73
2023/03/12 10:36:19;;;;;;;8.43;4.30;;;2.20;99.90;;;;;;5062245;28;20370;-73
2023/03/12 10:38:47;;;;;;;9.80;5.03;;;2.20;99.90;;;;;;5081263;28;20036;-73
2023/03/12 10:41:28;;;;;;;10.70;5.13;;;2.30;99.90;;;;;;5106156;27;20543;-73
2023/03/12 10:43:59;;;;;;;7.70;4.50;;;2.40;99.90;;;;;;5093999;28;20448;-73
2023/03/12 10:47:02;;;;;;;7.80;4.68;;;2.30;99.90;;;;;;5078509;28;20416;-72
2023/03/12 10:49:31;;;;;;;6.60;4.47;;;2.40;99.90;;;;;;5067948;28;20036;-72
2023/03/12 10:52:13;;;;;;;7.22;3.90;;;2.40;99.90;;;;;;5073234;28;20040;-72
2023/03/12 10:54:42;;;;;;;9.90;4.78;;;2.50;99.90;;;;;;5075064;28;20493;-73
2023/03/12 10:57:08;;;;;;;11.00;5.68;;;2.50;99.90;;;;;;5082554;28;20036;-72
2023/03/12 10:59:36;;;;;;;7.78;5.05;;;2.50;99.90;;;;;;5077736;28;20541;-75
2023/03/12 11:02:33;;;;;;;8.00;4.20;;;2.50;99.90;;;;;;5061405;28;20116;-75
2023/03/12 11:05:05;;;;;;;8.10;4.10;;;2.50;99.90;;;;;;5067964;28;20048;-72
2023/03/12 11:07:34;;;;;;;9.23;4.25;;;2.50;99.90;;;;;;5068594;28;20093;-72
2023/03/12 11:10:37;;;;;;;6.32;4.40;;;2.50;99.90;;;;;;5074742;28;20481;-73
2023/03/12 11:13:19;;;;;;;9.00;3.65;;;2.60;99.90;;;;;;5086495;28;20115;-72
2023/03/12 11:15:45;;;;;;;8.13;4.28;;;2.60;99.90;;;;;;5072100;28;20082;-72
2023/03/12 11:18:16;;;;;;;8.00;4.53;;;2.60;99.90;;;;;;5080545;28;20478;-72
2023/03/12 11:20:42;;;;;;;11.25;4.68;;;2.70;99.90;;;;;;5061302;28;20508;-72
2023/03/12 11:23:22;;;;;;;5.68;3.70;;;2.70;99.90;;;;;;5071105;28;20035;-72
2023/03/12 11:26:02;;;;;;;7.30;3.85;;;2.80;99.90;;;;;;5077089;28;20117;-72
2023/03/12 11:28:35;;;;;;;10.02;4.15;;;2.80;99.90;;;;;;5060785;28;20032;-72
2023/03/12 11:31:01;;;;;;;8.77;3.92;;;2.80;99.90;;;;;;5078402;28;20049;-72
2023/03/12 11:33:27;;;;;;;6.32;3.55;;;2.90;99.90;;;;;;5064908;28;20055;-72
2023/03/12 11:36:03;;;;;;;10.18;4.18;;;2.90;99.90;;;;;;5072011;28;20043;-72
2023/03/12 11:38:42;;;;;;;7.13;3.97;;;3.00;99.90;;;;;;5099866;28;20047;-72
2023/03/12 11:41:41;;;;;;;7.30;3.90;;;3.00;99.90;;;;;;5053152;28;20044;-72
2023/03/12 11:44:22;;;;;;;6.18;3.13;;;3.10;99.90;;;;;;5081038;28;20537;-72
2023/03/12 11:47:00;;;;;;;6.13;3.15;;;3.10;99.90;;;;;;5074718;28;20587;-72
2023/03/12 11:49:48;;;;;;;5.57;3.10;;;3.20;99.90;;;;;;5077963;28;20523;-72
2023/03/12 11:52:31;;;;;;;5.57;2.88;;;3.20;99.90;;;;;;5106966;28;20036;-72
2023/03/12 11:55:25;;;;;;;7.88;3.95;;;3.30;99.90;;;;;;5100207;28;20043;-72
2023/03/12 11:58:21;;;;;;;4.70;3.00;;;3.30;99.90;;;;;;5084567;28;20044;-72
2023/03/12 12:00:52;;;;;;;6.40;2.85;;;3.50;99.90;;;;;;5052211;28;20177;-72
2023/03/12 12:03:41;;;;;;;5.53;3.25;;;3.50;99.90;;;;;;5068227;28;20055;-72
2023/03/12 12:06:32;;;;;;;6.65;3.40;;;3.60;99.90;;;;;;5092996;28;20059;-72
2023/03/12 12:09:35;;;;;;;13.10;4.00;;;3.60;99.90;;;;;;5090822;28;20482;-72
2023/03/12 12:12:27;;;;;;;5.45;3.10;;;3.70;99.90;;;;;;5082510;28;20063;-72
2023/03/12 12:15:18;;;;;;;4.60;2.63;;;3.90;99.90;;;;;;5081332;28;20047;-74
2023/03/12 12:17:56;;;;;;;6.93;3.00;;;4.00;99.90;;;;;;5077550;28;20040;-72
2023/03/12 12:20:28;;;;;;;5.75;3.30;;;4.10;99.90;;;;;;5066043;28;20043;-72
2023/03/12 12:23:14;;;;;;;7.32;3.25;;;4.20;99.90;;;;;;5057384;28;20098;-72
2023/03/12 12:26:07;;;;;;;6.57;2.75;;;4.20;99.90;;;;;;5074614;28;20548;-72
2023/03/12 12:28:52;;;;;;;6.03;3.00;;;4.30;99.90;;;;;;5101651;28;20040;-72
2023/03/12 12:31:40;;;;;;;5.65;2.88;;;4.30;99.90;;;;;;5073712;28;20036;-72
2023/03/12 12:34:23;;;;;;;7.72;3.42;;;4.40;99.90;;;;;;5104763;27;20398;-71
2023/03/12 12:36:54;;;;;;;7.30;3.30;;;4.50;99.90;;;;;;5077481;28;20036;-72
2023/03/12 12:39:34;;;;;;;5.38;2.92;;;4.60;99.90;;;;;;5076745;28;20049;-71
2023/03/12 12:42:05;;;;;;;7.75;3.42;;;4.60;99.90;;;;;;5071239;28;20431;-72
2023/03/12 12:44:35;;;;;;;6.13;2.70;;;4.70;99.90;;;;;;5079100;28;20122;-71
2023/03/12 12:47:05;;;;;;;7.88;3.65;;;4.70;99.90;;;;;;5079908;28;20493;-71
2023/03/12 12:49:46;;;;;;;8.73;5.53;;;4.80;99.90;;;;;;5076864;28;20098;-74
2023/03/12 12:52:18;;;;;;;7.43;3.80;;;4.90;99.90;;;;;;5084026;28;20102;-73
2023/03/12 12:55:06;;;;;;;6.75;3.47;;;5.00;99.90;;;;;;5073850;28;20035;-74
2023/03/12 12:57:43;;;;;;;8.88;3.95;;;5.10;99.90;;;;;;5079713;28;20401;-71
2023/03/12 13:00:09;;;;;;;9.68;3.75;;;5.10;99.90;;;;;;5103913;28;20051;-71
2023/03/12 13:02:40;;;;;;;8.90;4.35;;;5.30;99.90;;;;;;5078231;28;20040;-71
2023/03/12 13:05:26;;;;;;;6.13;2.88;;;5.30;99.90;;;;;;5071184;28;20045;-71
2023/03/12 13:07:52;;;;;;;5.65;2.22;;;5.40;99.90;;;;;;5070312;28;20052;-71
2023/03/12 13:10:33;;;;;;;6.45;2.55;;;5.50;99.90;;;;;;5093105;28;20040;-71